createdAt,value
2023-11-12T00:00:49.236Z,99.16
2023-11-12T00:01:49.303Z,98.74
2023-11-12T00:02:49.234Z,98.85
2023-11-12T00:03:49.294Z,99.22
2023-11-12T00:04:49.233Z,99.26
2023-11-12T00:05:49.184Z,99.16
2023-11-12T00:06:49.168Z,98.85
2023-11-12T00:07:49.182Z,99.05
2023-11-12T00:08:49.158Z,99.05
2023-11-12T00:09:49.198Z,98.85
2023-11-12T00:10:49.217Z,99.05
2023-11-12T00:11:49.148Z,99.16
2023-11-12T00:12:49.138Z,99.05
2023-11-12T00:13:49.155Z,98.95
2023-11-12T00:14:49.140Z,99.10
2023-11-12T00:15:49.110Z,99.16
2023-11-12T00:16:49.121Z,99.10
2023-11-12T00:17:49.134Z,99.00
2023-11-12T00:18:49.113Z,99.31
2023-11-12T00:19:49.104Z,99.72
2023-11-12T00:20:49.078Z,99.21
2023-11-12T00:21:49.057Z,99.72
2023-11-12T00:22:49.073Z,99.41
2023-11-12T00:23:49.103Z,98.79
2023-11-12T00:24:49.034Z,99.31
2023-11-12T00:25:49.051Z,99.62
2023-11-12T00:26:49.019Z,99.62
2023-11-12T00:27:49.012Z,99.62
2023-11-12T00:28:49.060Z,99.00
2023-11-12T00:29:49.006Z,99.31
2023-11-12T00:30:48.992Z,99.41
2023-11-12T00:31:49.076Z,99.72
2023-11-12T00:32:49.116Z,99.93
2023-11-12T00:33:48.998Z,99.31
2023-11-12T00:34:49.106Z,99.31
2023-11-12T00:35:48.981Z,99.41
2023-11-12T00:36:48.942Z,99.52
2023-11-12T00:37:48.986Z,99.35
2023-11-12T00:38:48.964Z,99.46
2023-11-12T00:39:48.931Z,99.41
2023-11-12T00:40:48.951Z,99.21
2023-11-12T00:41:48.916Z,99.56
2023-11-12T00:42:48.928Z,99.66
2023-11-12T00:43:50.182Z,99.66
2023-11-12T00:44:49.896Z,99.62
2023-11-12T00:45:48.936Z,99.41
2023-11-12T00:46:48.935Z,99.46
2023-11-12T00:47:48.956Z,99.31
2023-11-12T00:48:48.885Z,99.46
2023-11-12T00:49:48.855Z,99.62
2023-11-12T00:50:48.837Z,99.66
2023-11-12T00:51:48.835Z,99.66
2023-11-12T00:52:48.855Z,99.41
2023-11-12T00:53:48.822Z,99.52
2023-11-12T00:54:48.812Z,99.99
2023-11-12T00:55:48.841Z,99.87
2023-11-12T00:56:48.808Z,99.82
2023-11-12T00:57:48.809Z,99.93
2023-11-12T00:58:48.826Z,99.52
2023-11-12T00:59:48.850Z,99.52
2023-11-12T01:00:48.781Z,99.56
2023-11-12T01:01:48.948Z,99.72
2023-11-12T01:02:48.886Z,99.72
2023-11-12T01:03:48.832Z,99.82
2023-11-12T01:04:48.785Z,99.82
2023-11-12T01:05:48.720Z,99.52
2023-11-12T01:06:48.784Z,99.68
2023-11-12T01:07:48.784Z,99.52
2023-11-12T01:08:48.698Z,99.62
2023-11-12T01:09:48.694Z,99.72
2023-11-12T01:10:48.840Z,99.82
2023-11-12T01:11:48.711Z,99.78
2023-11-12T01:12:48.726Z,99.57
2023-11-12T01:13:48.683Z,99.93
2023-11-12T01:14:48.936Z,99.78
2023-11-12T01:15:48.726Z,99.78
2023-11-12T01:16:48.711Z,99.68
2023-11-12T01:17:48.684Z,99.78
2023-11-12T01:18:48.948Z,99.57
2023-11-12T01:19:48.621Z,99.68
2023-11-12T01:20:48.608Z,99.68
2023-11-12T01:21:48.696Z,99.37
2023-11-12T01:22:48.597Z,99.57
2023-11-12T01:23:48.584Z,99.68
2023-11-12T01:24:49.578Z,99.37
2023-11-12T01:25:48.619Z,99.78
2023-11-12T01:26:48.616Z,99.78
2023-11-12T01:27:48.562Z,99.37
2023-11-12T01:28:48.548Z,99.68
2023-11-12T01:29:48.539Z,99.43
2023-11-12T01:30:48.565Z,99.63
2023-11-12T01:31:48.600Z,99.43
2023-11-12T01:32:48.569Z,99.84
2023-11-12T01:33:48.505Z,99.52
2023-11-12T01:34:48.530Z,99.52
2023-11-12T01:35:48.522Z,99.17
2023-11-12T01:36:48.495Z,99.38
2023-11-12T01:37:48.472Z,99.48
2023-11-12T01:38:48.485Z,99.38
2023-11-12T01:39:48.481Z,99.73
2023-11-12T01:40:48.483Z,99.38
2023-11-12T01:41:49.328Z,99.48
2023-11-12T01:42:48.437Z,98.86
2023-11-12T01:43:48.446Z,98.86
2023-11-12T01:44:48.454Z,98.55
2023-11-12T01:45:48.420Z,98.75
2023-11-12T01:46:48.411Z,99.07
2023-11-12T01:47:48.499Z,98.86
2023-11-12T01:48:48.488Z,98.86
2023-11-12T01:49:48.422Z,98.92
2023-11-12T01:50:48.380Z,98.96
2023-11-12T01:51:48.368Z,99.17
2023-11-12T01:52:48.350Z,99.17
2023-11-12T01:53:49.351Z,99.17
2023-11-12T01:54:48.372Z,99.07
2023-11-12T01:55:48.344Z,99.07
2023-11-12T01:56:48.326Z,99.07
2023-11-12T01:57:48.320Z,98.96
2023-11-12T01:58:48.309Z,99.07
2023-11-12T01:59:48.330Z,98.96
2023-11-12T02:00:48.314Z,98.96
2023-11-12T02:01:48.371Z,98.92
2023-11-12T02:02:48.373Z,98.96
2023-11-12T02:03:48.418Z,98.86
2023-11-12T02:04:48.594Z,99.07
2023-11-12T02:05:48.265Z,99.17
2023-11-12T02:06:48.248Z,98.92
2023-11-12T02:07:48.245Z,98.96
2023-11-12T02:08:48.246Z,99.17
2023-11-12T02:09:48.248Z,99.07
2023-11-12T02:10:48.229Z,98.92
2023-11-12T02:11:48.205Z,98.96
2023-11-12T02:12:48.318Z,98.92
2023-11-12T02:13:48.221Z,99.13
2023-11-12T02:14:48.228Z,98.75
2023-11-12T02:15:48.255Z,98.92
2023-11-12T02:16:48.224Z,99.13
2023-11-12T02:17:48.182Z,98.71
2023-11-12T02:18:48.256Z,99.02
2023-11-12T02:19:48.160Z,98.96
2023-11-12T02:20:48.160Z,99.07
2023-11-12T02:21:48.149Z,99.02
2023-11-12T02:22:48.133Z,99.02
2023-11-12T02:23:48.168Z,99.07
2023-11-12T02:24:48.123Z,98.92
2023-11-12T02:25:48.117Z,98.92
2023-11-12T02:26:48.110Z,98.55
2023-11-12T02:27:48.094Z,98.92
2023-11-12T02:28:48.119Z,99.02
2023-11-12T02:29:48.077Z,98.61
2023-11-12T02:30:48.132Z,98.44
2023-11-12T02:31:48.062Z,98.61
2023-11-12T02:32:48.106Z,98.61
2023-11-12T02:33:48.102Z,98.61
2023-11-12T02:34:48.051Z,98.71
2023-11-12T02:35:48.039Z,98.71
2023-11-12T02:36:48.028Z,98.71
2023-11-12T02:37:48.042Z,98.82
2023-11-12T02:38:48.016Z,98.82
2023-11-12T02:39:48.007Z,98.82
2023-11-12T02:40:48.002Z,98.61
2023-11-12T02:41:47.987Z,98.82
2023-11-12T02:42:48.008Z,99.02
2023-11-12T02:43:47.968Z,98.71
2023-11-12T02:44:47.969Z,99.02
2023-11-12T02:45:47.985Z,99.13
2023-11-12T02:46:48.018Z,99.13
2023-11-12T02:47:48.038Z,99.02
2023-11-12T02:48:47.957Z,99.02
2023-11-12T02:49:47.948Z,98.61
2023-11-12T02:50:47.920Z,99.02
2023-11-12T02:51:47.936Z,99.02
2023-11-12T02:52:47.906Z,98.92
2023-11-12T02:53:47.904Z,98.82
2023-11-12T02:54:47.889Z,98.61
2023-11-12T02:55:47.885Z,98.09
2023-11-12T02:56:47.902Z,98.50
2023-11-12T02:57:47.869Z,98.40
2023-11-12T02:58:47.864Z,98.09
2023-11-12T02:59:47.864Z,98.09
2023-11-12T03:00:47.974Z,97.88
2023-11-12T03:01:47.872Z,98.09
2023-11-12T03:02:47.959Z,97.88
2023-11-12T03:03:47.880Z,97.88
2023-11-12T03:04:47.823Z,98.09
2023-11-12T03:05:47.836Z,98.19
2023-11-12T03:06:47.829Z,98.09
2023-11-12T03:07:47.797Z,98.19
2023-11-12T03:08:47.786Z,98.13
2023-11-12T03:09:47.781Z,98.34
2023-11-12T03:10:47.886Z,98.19
2023-11-12T03:11:47.765Z,97.99
2023-11-12T03:12:47.769Z,98.09
2023-11-12T03:13:47.749Z,98.30
2023-11-12T03:14:47.744Z,98.19
2023-11-12T03:15:47.816Z,98.19
2023-11-12T03:16:47.757Z,98.09
2023-11-12T03:17:47.748Z,97.88
2023-11-12T03:18:47.965Z,97.67
2023-11-12T03:19:47.752Z,97.67
2023-11-12T03:20:47.703Z,97.78
2023-11-12T03:21:47.695Z,97.57
2023-11-12T03:22:47.707Z,97.42
2023-11-12T03:23:47.679Z,97.47
2023-11-12T03:24:47.697Z,97.32
2023-11-12T03:25:47.664Z,97.01
2023-11-12T03:26:47.661Z,97.32
2023-11-12T03:27:47.678Z,96.91
2023-11-12T03:28:47.653Z,96.80
2023-11-12T03:29:48.664Z,96.80
2023-11-12T03:30:47.702Z,96.59
2023-11-12T03:31:47.636Z,96.91
2023-11-12T03:32:47.733Z,96.70
2023-11-12T03:33:47.678Z,97.01
2023-11-12T03:34:47.621Z,96.80
2023-11-12T03:35:47.597Z,97.11
2023-11-12T03:36:47.592Z,96.91
2023-11-12T03:37:47.588Z,96.14
2023-11-12T03:38:47.587Z,96.34
2023-11-12T03:39:47.622Z,96.39
2023-11-12T03:40:47.558Z,96.34
2023-11-12T03:41:47.561Z,96.49
2023-11-12T03:42:47.536Z,96.34
2023-11-12T03:43:48.572Z,96.14
2023-11-12T03:44:47.528Z,96.24
2023-11-12T03:45:47.543Z,96.59
2023-11-12T03:46:47.533Z,96.59
2023-11-12T03:47:47.554Z,96.55
2023-11-12T03:48:47.585Z,96.45
2023-11-12T03:49:47.490Z,96.14
2023-11-12T03:50:47.480Z,96.55
2023-11-12T03:51:47.470Z,96.24
2023-11-12T03:52:47.461Z,96.45
2023-11-12T03:53:47.476Z,96.24
2023-11-12T03:54:47.494Z,96.34
2023-11-12T03:55:47.435Z,96.24
2023-11-12T03:56:47.423Z,96.39
2023-11-12T03:57:47.492Z,96.80
2023-11-12T03:58:47.447Z,97.17
2023-11-12T03:59:47.411Z,96.34
2023-11-12T04:00:47.427Z,96.55
2023-11-12T04:01:47.394Z,96.45
2023-11-12T04:02:48.913Z,96.34
2023-11-12T04:03:47.558Z,96.66
2023-11-12T04:04:47.482Z,96.24
2023-11-12T04:05:47.363Z,96.66
2023-11-12T04:06:47.352Z,95.94
2023-11-12T04:07:47.391Z,95.52
2023-11-12T04:08:47.359Z,95.83
2023-11-12T04:09:47.333Z,95.94
2023-11-12T04:10:47.316Z,95.73
2023-11-12T04:11:47.327Z,95.62
2023-11-12T04:12:47.329Z,95.62
2023-11-12T04:13:47.301Z,95.31
2023-11-12T04:14:47.293Z,95.62
2023-11-12T04:15:47.353Z,95.42
2023-11-12T04:16:47.297Z,95.52
2023-11-12T04:17:47.338Z,95.52
2023-11-12T04:18:47.272Z,95.52
2023-11-12T04:19:47.248Z,95.42
2023-11-12T04:20:47.253Z,95.52
2023-11-12T04:21:47.326Z,95.57
2023-11-12T04:22:47.229Z,95.42
2023-11-12T04:23:47.218Z,95.42
2023-11-12T04:24:47.289Z,95.42
2023-11-12T04:25:47.207Z,95.27
2023-11-12T04:26:47.271Z,95.27
2023-11-12T04:27:47.186Z,95.42
2023-11-12T04:28:47.188Z,95.48
2023-11-12T04:29:47.171Z,95.62
2023-11-12T04:30:47.167Z,95.83
2023-11-12T04:31:47.196Z,95.73
2023-11-12T04:32:47.990Z,96.03
2023-11-12T04:33:47.138Z,95.73
2023-11-12T04:34:47.133Z,95.73
2023-11-12T04:35:47.153Z,95.73
2023-11-12T04:36:47.142Z,96.14
2023-11-12T04:37:47.120Z,96.24
2023-11-12T04:38:47.112Z,96.24
2023-11-12T04:39:47.128Z,96.76
2023-11-12T04:40:47.133Z,96.03
2023-11-12T04:41:47.086Z,96.34
2023-11-12T04:42:47.117Z,96.14
2023-11-12T04:43:47.065Z,96.24
2023-11-12T04:44:47.053Z,96.03
2023-11-12T04:45:47.201Z,96.03
2023-11-12T04:46:47.045Z,96.09
2023-11-12T04:47:47.066Z,96.20
2023-11-12T04:48:47.042Z,96.34
2023-11-12T04:49:47.016Z,96.34
2023-11-12T04:50:47.423Z,96.24
2023-11-12T04:51:47.059Z,96.24
2023-11-12T04:52:46.997Z,96.24
2023-11-12T04:53:46.990Z,96.24
2023-11-12T04:54:47.029Z,96.24
2023-11-12T04:55:47.004Z,96.20
2023-11-12T04:56:46.968Z,96.45
2023-11-12T04:57:46.982Z,96.24
2023-11-12T04:58:46.960Z,96.51
2023-11-12T04:59:46.970Z,96.03
2023-11-12T05:00:46.965Z,96.76
2023-11-12T05:01:46.973Z,96.51
2023-11-12T05:02:46.951Z,96.72
2023-11-12T05:03:47.091Z,96.97
2023-11-12T05:04:46.930Z,96.66
2023-11-12T05:05:46.909Z,96.55
2023-11-12T05:06:46.904Z,96.76
2023-11-12T05:07:46.885Z,97.02
2023-11-12T05:08:46.881Z,97.07
2023-11-12T05:09:46.972Z,97.17
2023-11-12T05:10:46.868Z,97.07
2023-11-12T05:11:46.855Z,97.13
2023-11-12T05:12:46.966Z,97.02
2023-11-12T05:13:46.865Z,96.92
2023-11-12T05:14:46.857Z,97.02
2023-11-12T05:15:46.860Z,97.13
2023-11-12T05:16:46.813Z,97.17
2023-11-12T05:17:46.837Z,96.92
2023-11-12T05:18:46.880Z,96.72
2023-11-12T05:19:46.796Z,96.82
2023-11-12T05:20:46.785Z,96.92
2023-11-12T05:22:20.896Z,97.13
2023-11-12T05:22:46.772Z,96.92
2023-11-12T05:23:46.794Z,97.02
2023-11-12T05:24:46.796Z,97.02
2023-11-12T05:25:46.777Z,97.02
2023-11-12T05:26:46.749Z,96.82
2023-11-12T05:27:46.788Z,96.82
2023-11-12T05:28:46.764Z,96.72
2023-11-12T05:29:46.745Z,96.72
2023-11-12T05:30:46.751Z,96.61
2023-11-12T05:31:46.720Z,96.82
2023-11-12T05:32:46.787Z,96.56
2023-11-12T05:33:46.769Z,96.61
2023-11-12T05:34:46.689Z,96.41
2023-11-12T05:35:46.752Z,96.72
2023-11-12T05:36:46.706Z,96.88
2023-11-12T05:37:46.697Z,96.82
2023-11-12T05:38:46.653Z,96.72
2023-11-12T05:39:46.721Z,96.72
2023-11-12T05:40:46.774Z,96.51
2023-11-12T05:41:46.690Z,96.76
2023-11-12T05:42:46.696Z,96.72
2023-11-12T05:43:46.615Z,96.76
2023-11-12T05:44:46.615Z,96.66
2023-11-12T05:45:46.627Z,96.76
2023-11-12T05:46:46.623Z,97.38
2023-11-12T05:47:46.660Z,97.28
2023-11-12T05:48:46.617Z,97.28
2023-11-12T05:49:46.571Z,97.28
2023-11-12T05:50:46.592Z,97.28
2023-11-12T05:51:46.618Z,96.97
2023-11-12T05:52:46.585Z,97.07
2023-11-12T05:53:46.559Z,96.92
2023-11-12T05:54:46.569Z,96.92
2023-11-12T05:55:46.522Z,97.02
2023-11-12T05:56:46.549Z,97.02
2023-11-12T05:57:46.576Z,96.61
2023-11-12T05:58:46.525Z,96.51
2023-11-12T05:59:46.502Z,96.82
2023-11-12T06:00:46.562Z,96.82
2023-11-12T06:01:46.625Z,96.61
2023-11-12T06:02:46.537Z,96.82
2023-11-12T06:03:47.118Z,96.05
2023-11-12T06:04:46.461Z,96.09
2023-11-12T06:05:46.453Z,97.13
2023-11-12T06:06:46.520Z,96.92
2023-11-12T06:07:46.459Z,96.72
2023-11-12T06:08:46.435Z,96.61
2023-11-12T06:09:46.473Z,96.51
2023-11-12T06:10:46.447Z,96.82
2023-11-12T06:11:46.422Z,96.51
2023-11-12T06:12:46.474Z,96.66
2023-11-12T06:13:46.383Z,96.72
2023-11-12T06:14:49.041Z,96.61
2023-11-12T06:15:47.498Z,96.82
2023-11-12T06:16:46.407Z,96.67
2023-11-12T06:17:46.409Z,96.88
2023-11-12T06:18:46.365Z,96.67
2023-11-12T06:19:46.396Z,96.77
2023-11-12T06:20:46.387Z,96.61
2023-11-12T06:21:46.394Z,96.88
2023-11-12T06:22:46.317Z,96.51
2023-11-12T06:23:46.364Z,96.56
2023-11-12T06:24:46.365Z,96.61
2023-11-12T06:25:46.330Z,96.72
2023-11-12T06:26:46.292Z,96.82
2023-11-12T06:27:46.313Z,96.92
2023-11-12T06:28:46.272Z,96.61
2023-11-12T06:29:46.287Z,96.72
2023-11-12T06:30:46.285Z,96.82
2023-11-12T06:31:46.244Z,97.02
2023-11-12T06:32:46.277Z,96.51
2023-11-12T06:33:46.286Z,97.13
2023-11-12T06:34:46.329Z,97.13
2023-11-12T06:35:46.223Z,97.13
2023-11-12T06:36:46.865Z,97.33
2023-11-12T06:37:46.208Z,97.33
2023-11-12T06:38:46.305Z,97.44
2023-11-12T06:39:46.238Z,97.33
2023-11-12T06:40:46.186Z,97.02
2023-11-12T06:41:46.216Z,97.19
2023-11-12T06:42:46.193Z,96.82
2023-11-12T06:43:46.188Z,96.92
2023-11-12T06:44:46.176Z,96.72
2023-11-12T06:45:46.171Z,97.02
2023-11-12T06:46:46.193Z,97.23
2023-11-12T06:47:46.164Z,97.23
2023-11-12T06:48:46.184Z,97.33
2023-11-12T06:49:46.112Z,97.33
2023-11-12T06:50:46.098Z,97.07
2023-11-12T06:51:46.156Z,96.92
2023-11-12T06:52:46.085Z,97.39
2023-11-12T06:53:46.109Z,97.33
2023-11-12T06:54:46.145Z,97.44
2023-11-12T06:55:46.070Z,97.64
2023-11-12T06:56:46.071Z,97.39
2023-11-12T06:57:46.071Z,97.54
2023-11-12T06:58:46.064Z,97.33
2023-11-12T06:59:46.035Z,97.71
2023-11-12T07:00:46.060Z,97.81
2023-11-12T07:01:46.082Z,97.60
2023-11-12T07:02:46.052Z,97.13
2023-11-12T07:03:46.124Z,97.19
2023-11-12T07:04:46.013Z,97.39
2023-11-12T07:05:45.994Z,97.19
2023-11-12T07:07:01.026Z,97.64
2023-11-12T07:07:47.984Z,97.50
2023-11-12T07:08:45.996Z,97.64
2023-11-12T07:09:46.044Z,98.06
2023-11-12T07:10:45.955Z,98.01
2023-11-12T07:11:45.946Z,97.91
2023-11-12T07:12:46.032Z,97.64
2023-11-12T07:13:45.999Z,97.81
2023-11-12T07:14:45.919Z,97.60
2023-11-12T07:15:45.974Z,97.71
2023-11-12T07:16:45.992Z,97.71
2023-11-12T07:17:45.968Z,97.39
2023-11-12T07:18:53.444Z,97.23
2023-11-12T07:19:46.880Z,97.08
2023-11-12T07:20:45.893Z,97.50
2023-11-12T07:21:45.926Z,96.98
2023-11-12T07:22:45.906Z,96.98
2023-11-12T07:23:45.852Z,97.19
2023-11-12T07:24:45.898Z,97.29
2023-11-12T07:25:45.833Z,96.88
2023-11-12T07:26:45.851Z,97.19
2023-11-12T07:27:45.884Z,97.08
2023-11-12T07:28:45.827Z,97.08
2023-11-12T07:29:45.812Z,96.77
2023-11-12T07:30:45.816Z,97.04
2023-11-12T07:31:45.852Z,96.98
2023-11-12T07:32:45.809Z,96.62
2023-11-12T07:33:45.794Z,96.73
2023-11-12T07:34:45.763Z,96.42
2023-11-12T07:35:45.758Z,96.83
2023-11-12T07:36:45.843Z,96.48
2023-11-12T07:37:45.740Z,96.58
2023-11-12T07:38:45.736Z,96.21
2023-11-12T07:39:45.785Z,96.31
2023-11-12T07:40:45.919Z,96.21
2023-11-12T07:41:45.739Z,96.11
2023-11-12T07:42:45.724Z,96.11
2023-11-12T07:43:45.719Z,95.70
2023-11-12T07:44:47.137Z,95.39
2023-11-12T07:45:45.865Z,95.18
2023-11-12T07:46:45.717Z,94.97
2023-11-12T07:47:45.666Z,95.07
2023-11-12T07:48:45.705Z,94.87
2023-11-12T07:49:45.663Z,94.87
2023-11-12T07:50:45.671Z,94.87
2023-11-12T07:51:45.733Z,94.67
2023-11-12T07:52:45.629Z,94.77
2023-11-12T07:53:45.631Z,94.35
2023-11-12T07:54:45.643Z,94.97
2023-11-12T07:55:45.628Z,94.21
2023-11-12T07:56:45.612Z,94.42
2023-11-12T07:57:45.618Z,94.52
2023-11-12T07:58:45.641Z,94.52
2023-11-12T07:59:45.581Z,93.69
2023-11-12T08:00:45.642Z,94.15
2023-11-12T08:01:45.611Z,94.62
2023-11-12T08:02:45.648Z,93.90
2023-11-12T08:03:45.610Z,93.43
2023-11-12T08:04:45.574Z,94.56
2023-11-12T08:05:45.577Z,94.42
2023-11-12T08:06:45.528Z,94.35
2023-11-12T08:07:45.519Z,94.56
2023-11-12T08:08:45.492Z,93.49
2023-11-12T08:09:46.582Z,94.10
2023-11-12T08:10:45.518Z,93.59
2023-11-12T08:11:45.516Z,93.59
2023-11-12T08:12:45.481Z,93.53
2023-11-12T08:13:45.474Z,93.22
2023-11-12T08:14:45.491Z,93.90
2023-11-12T08:15:45.490Z,93.90
2023-11-12T08:16:45.462Z,93.90
2023-11-12T08:17:45.441Z,93.38
2023-11-12T08:18:45.476Z,93.49
2023-11-12T08:19:45.467Z,93.90
2023-11-12T08:20:45.418Z,94.31
2023-11-12T08:21:45.446Z,93.90
2023-11-12T08:22:45.427Z,94.42
2023-11-12T08:23:45.416Z,94.57
2023-11-12T08:24:45.425Z,93.34
2023-11-12T08:25:45.397Z,93.44
2023-11-12T08:26:45.371Z,93.59
2023-11-12T08:27:45.397Z,93.54
2023-11-12T08:28:45.381Z,93.75
2023-11-12T08:29:45.345Z,93.75
2023-11-12T08:30:45.390Z,92.51
2023-11-12T08:31:45.342Z,92.61
2023-11-12T08:32:45.364Z,92.41
2023-11-12T08:33:45.429Z,93.13
2023-11-12T08:34:45.312Z,93.09
2023-11-12T08:35:45.302Z,92.47
2023-11-12T08:36:45.374Z,93.30
2023-11-12T08:37:45.317Z,92.78
2023-11-12T08:38:46.349Z,92.57
2023-11-12T08:39:45.316Z,92.78
2023-11-12T08:40:45.335Z,92.06
2023-11-12T08:41:45.257Z,92.88
2023-11-12T08:42:45.330Z,91.75
2023-11-12T08:43:45.316Z,91.34
2023-11-12T08:44:45.235Z,91.60
2023-11-12T08:45:45.259Z,91.30
2023-11-12T08:46:45.257Z,91.40
2023-11-12T08:47:45.294Z,90.82
2023-11-12T08:48:45.227Z,91.09
2023-11-12T08:49:45.206Z,90.47
2023-11-12T08:50:45.212Z,90.51
2023-11-12T08:51:45.192Z,90.41
2023-11-12T08:52:45.210Z,90.67
2023-11-12T08:53:45.180Z,90.82
2023-11-12T08:54:45.218Z,90.51
2023-11-12T08:55:45.152Z,90.47
2023-11-12T08:56:45.165Z,90.57
2023-11-12T08:57:45.195Z,90.47
2023-11-12T08:58:45.120Z,90.51
2023-11-12T08:59:45.121Z,90.61
2023-11-12T09:00:45.159Z,90.72
2023-11-12T09:01:45.244Z,90.51
2023-11-12T09:02:46.193Z,90.41
2023-11-12T09:03:45.140Z,90.31
2023-11-12T09:04:45.073Z,90.72
2023-11-12T09:05:45.071Z,90.51
2023-11-12T09:06:45.164Z,90.47
2023-11-12T09:07:45.079Z,90.37
2023-11-12T09:08:45.070Z,90.37
2023-11-12T09:09:45.103Z,89.85
2023-11-12T09:10:45.044Z,90.06
2023-11-12T09:11:45.054Z,89.85
2023-11-12T09:12:45.064Z,89.95
2023-11-12T09:13:45.014Z,90.37
2023-11-12T09:14:45.001Z,89.44
2023-11-12T09:15:45.062Z,89.44
2023-11-12T09:16:45.194Z,90.16
2023-11-12T09:17:45.050Z,89.85
2023-11-12T09:18:45.025Z,89.85
2023-11-12T09:19:44.988Z,89.95
2023-11-12T09:20:44.987Z,89.95
2023-11-12T09:21:45.082Z,89.85
2023-11-12T09:22:44.938Z,89.95
2023-11-12T09:23:44.936Z,89.54
2023-11-12T09:24:55.383Z,89.44
2023-11-12T09:25:46.916Z,89.44
2023-11-12T09:26:44.946Z,89.91
2023-11-12T09:27:44.931Z,89.65
2023-11-12T09:28:44.912Z,90.16
2023-11-12T09:29:44.886Z,90.26
2023-11-12T09:30:54.368Z,90.26
2023-11-12T09:31:45.905Z,90.12
2023-11-12T09:32:44.937Z,90.26
2023-11-12T09:33:44.960Z,90.12
2023-11-12T09:34:45.342Z,90.33
2023-11-12T09:35:44.864Z,89.56
2023-11-12T09:36:44.886Z,90.18
2023-11-12T09:37:44.836Z,89.46
2023-11-12T09:38:44.823Z,89.67
2023-11-12T09:39:44.880Z,89.29
2023-11-12T09:40:44.848Z,88.74
2023-11-12T09:41:44.873Z,88.57
2023-11-12T09:42:44.833Z,88.74
2023-11-12T09:43:44.796Z,88.53
2023-11-12T09:44:44.773Z,88.43
2023-11-12T09:45:44.869Z,88.64
2023-11-12T09:46:44.762Z,89.15
2023-11-12T09:47:44.833Z,88.64
2023-11-12T09:48:44.763Z,88.23
2023-11-12T09:49:44.754Z,88.33
2023-11-12T09:50:44.750Z,88.37
2023-11-12T09:51:44.851Z,88.47
2023-11-12T09:52:44.715Z,88.06
2023-11-12T09:53:44.714Z,88.84
2023-11-12T09:54:44.720Z,88.64
2023-11-12T09:55:44.723Z,88.37
2023-11-12T09:56:45.098Z,88.26
2023-11-12T09:57:44.725Z,88.17
2023-11-12T09:58:44.667Z,88.47
2023-11-12T09:59:44.696Z,88.47
2023-11-12T10:00:44.821Z,88.68
2023-11-12T10:01:44.670Z,88.78
2023-11-12T10:02:44.720Z,88.23
2023-11-12T10:03:44.828Z,88.17
2023-11-12T10:04:44.796Z,87.85
2023-11-12T10:05:44.632Z,87.44
2023-11-12T10:06:44.677Z,86.82
2023-11-12T10:07:44.721Z,87.34
2023-11-12T10:08:44.608Z,87.96
2023-11-12T10:09:44.724Z,87.96
2023-11-12T10:10:44.626Z,88.06
2023-11-12T10:11:44.640Z,87.71
2023-11-12T10:12:44.639Z,87.71
2023-11-12T10:13:44.630Z,87.30
2023-11-12T10:14:44.620Z,87.92
2023-11-12T10:15:45.610Z,87.09
2023-11-12T10:16:44.645Z,86.74
2023-11-12T10:17:44.679Z,86.68
2023-11-12T10:18:44.597Z,86.74
2023-11-12T10:19:44.583Z,86.68
2023-11-12T10:20:44.508Z,86.68
2023-11-12T10:21:44.551Z,86.68
2023-11-12T10:22:44.606Z,86.88
2023-11-12T10:23:44.520Z,87.09
2023-11-12T10:24:44.574Z,86.79
2023-11-12T10:25:44.481Z,86.68
2023-11-12T10:26:44.451Z,86.88
2023-11-12T10:27:44.499Z,86.68
2023-11-12T10:28:44.510Z,86.79
2023-11-12T10:29:44.467Z,86.74
2023-11-12T10:30:44.459Z,86.85
2023-11-12T10:31:44.463Z,86.43
2023-11-12T10:32:44.507Z,86.54
2023-11-12T10:33:44.500Z,86.23
2023-11-12T10:34:44.428Z,86.95
2023-11-12T10:35:44.406Z,87.05
2023-11-12T10:36:44.428Z,86.70
2023-11-12T10:37:44.372Z,85.88
2023-11-12T10:38:44.403Z,85.47
2023-11-12T10:39:44.388Z,85.06
2023-11-12T10:40:44.365Z,84.75
2023-11-12T10:41:44.345Z,84.54
2023-11-12T10:42:44.405Z,84.44
2023-11-12T10:43:44.395Z,85.06
2023-11-12T10:44:44.320Z,85.68
2023-11-12T10:45:44.371Z,83.72
2023-11-12T10:46:44.374Z,83.99
2023-11-12T10:47:44.352Z,84.61
2023-11-12T10:48:44.436Z,84.20
2023-11-12T10:49:44.272Z,83.92
2023-11-12T10:50:44.271Z,84.40
2023-11-12T10:51:44.377Z,84.64
2023-11-12T10:52:44.291Z,83.72
2023-11-12T10:53:44.236Z,84.95
2023-11-12T10:54:44.473Z,84.44
2023-11-12T10:55:44.227Z,84.50
2023-11-12T10:56:44.224Z,84.40
2023-11-12T10:57:44.337Z,84.50
2023-11-12T10:58:44.240Z,84.71
2023-11-12T10:59:44.188Z,84.20
2023-11-12T11:00:44.294Z,83.78
2023-11-12T11:01:44.246Z,83.68
2023-11-12T11:02:44.232Z,83.68
2023-11-12T11:03:44.215Z,83.17
2023-11-12T11:04:44.267Z,83.17
2023-11-12T11:05:44.148Z,81.83
2023-11-12T11:06:44.187Z,81.83
2023-11-12T11:07:44.182Z,82.24
2023-11-12T11:08:44.131Z,81.83
2023-11-12T11:09:44.148Z,82.31
2023-11-12T11:10:44.117Z,82.27
2023-11-12T11:11:44.127Z,81.92
2023-11-12T11:12:44.149Z,81.04
2023-11-12T11:13:44.143Z,81.10
2023-11-12T11:14:44.078Z,80.18
2023-11-12T11:15:44.171Z,79.56
2023-11-12T11:16:44.127Z,78.53
2023-11-12T11:17:44.051Z,78.53
2023-11-12T11:18:44.094Z,78.74
2023-11-12T11:19:44.036Z,77.30
2023-11-12T11:20:44.027Z,77.10
2023-11-12T11:21:44.054Z,78.39
2023-11-12T11:23:16.494Z,78.29
2023-11-12T11:23:44.015Z,76.75
2023-11-12T11:24:44.025Z,77.26
2023-11-12T11:25:44.011Z,78.19
2023-11-12T11:26:44.012Z,78.60
2023-11-12T11:27:43.995Z,77.47
2023-11-12T11:28:43.961Z,77.23
2023-11-12T11:29:44.672Z,77.33
2023-11-12T11:30:43.997Z,77.23
2023-11-12T11:31:43.940Z,76.92
2023-11-12T11:32:43.952Z,77.23
2023-11-12T11:33:44.142Z,77.44
2023-11-12T11:34:44.915Z,77.33
2023-11-12T11:35:43.928Z,76.89
2023-11-12T11:36:44.964Z,76.72
2023-11-12T11:37:43.908Z,76.86
2023-11-12T11:38:43.884Z,78.64
2023-11-12T11:39:43.948Z,78.23
2023-11-12T11:40:43.899Z,79.25
2023-11-12T11:41:43.876Z,78.33
2023-11-12T11:42:43.910Z,78.94
2023-11-12T11:43:43.846Z,79.29
2023-11-12T11:44:43.889Z,79.08
2023-11-12T11:45:43.902Z,79.63
2023-11-12T11:46:43.853Z,80.56
2023-11-12T11:47:43.829Z,80.97
2023-11-12T11:48:43.840Z,80.77
2023-11-12T11:49:46.579Z,81.18
2023-11-12T11:50:47.015Z,81.18
2023-11-12T11:51:43.867Z,81.21
2023-11-12T11:52:43.782Z,81.48
2023-11-12T11:53:43.785Z,81.59
2023-11-12T11:54:43.822Z,81.07
2023-11-12T11:55:43.759Z,81.32
2023-11-12T11:56:43.756Z,81.11
2023-11-12T11:57:44.166Z,81.11
2023-11-12T11:58:43.740Z,81.11
2023-11-12T11:59:43.767Z,80.39
2023-11-12T12:00:43.733Z,80.08
2023-11-12T12:01:43.751Z,80.91
2023-11-12T12:02:43.813Z,80.91
2023-11-12T12:03:43.748Z,81.15
2023-11-12T12:04:43.753Z,81.76
2023-11-12T12:05:43.678Z,81.46
2023-11-12T12:06:43.698Z,82.07
2023-11-12T12:07:43.654Z,82.14
2023-11-12T12:08:43.653Z,82.39
2023-11-12T12:09:43.691Z,82.42
2023-11-12T12:10:43.636Z,83.00
2023-11-12T12:11:43.629Z,82.79
2023-11-12T12:12:43.664Z,83.86
2023-11-12T12:13:43.620Z,83.76
2023-11-12T12:14:43.639Z,83.83
2023-11-12T12:15:43.626Z,83.62
2023-11-12T12:16:46.304Z,83.41
2023-11-12T12:17:44.619Z,83.76
2023-11-12T12:18:43.651Z,83.65
2023-11-12T12:19:43.596Z,84.64
2023-11-12T12:20:43.557Z,84.58
2023-11-12T12:21:43.570Z,84.79
2023-11-12T12:22:43.542Z,83.97
2023-11-12T12:23:43.539Z,84.38
2023-11-12T12:24:43.559Z,84.64
2023-11-12T12:25:43.514Z,84.64
2023-11-12T12:26:43.512Z,84.54
2023-11-12T12:27:43.553Z,84.54
2023-11-12T12:28:43.498Z,84.40
2023-11-12T12:29:43.513Z,84.71
2023-11-12T12:30:43.523Z,82.96
2023-11-12T12:31:43.502Z,83.83
2023-11-12T12:32:43.517Z,84.44
2023-11-12T12:33:43.506Z,83.99
2023-11-12T12:34:43.468Z,83.68
2023-11-12T12:35:43.441Z,83.99
2023-11-12T12:36:43.465Z,83.13
2023-11-12T12:37:43.448Z,82.82
2023-11-12T12:38:43.411Z,82.41
2023-11-12T12:39:43.515Z,82.20
2023-11-12T12:40:43.457Z,82.20
2023-11-12T12:41:43.391Z,81.59
2023-11-12T12:42:43.436Z,81.48
2023-11-12T12:43:43.396Z,81.59
2023-11-12T12:44:43.393Z,82.14
2023-11-12T12:45:43.389Z,82.45
2023-11-12T12:46:43.435Z,82.51
2023-11-12T12:47:43.525Z,82.62
2023-11-12T12:48:43.386Z,82.10
2023-11-12T12:49:43.376Z,82.10
2023-11-12T12:50:43.325Z,81.69
2023-11-12T12:51:43.353Z,81.45
2023-11-12T12:52:43.328Z,81.69